sensor_id;sensor_type;location;lat;lon;timestamp;P1;durP1;ratioP1;P2;durP2;ratioP2
48006;SDS011;33771;48.180;11.400;2022-11-30T00:00:58;75.67;;;37.90;;
48006;SDS011;33771;48.180;11.400;2022-11-30T00:03:32;68.73;;;35.90;;
48006;SDS011;33771;48.180;11.400;2022-11-30T00:06:02;72.53;;;38.47;;
48006;SDS011;33771;48.180;11.400;2022-11-30T00:08:28;70.10;;;36.47;;
48006;SDS011;33771;48.180;11.400;2022-11-30T00:10:54;73.87;;;38.60;;
48006;SDS011;33771;48.180;11.400;2022-11-30T00:13:20;74.33;;;37.40;;
48006;SDS011;33771;48.180;11.400;2022-11-30T00:15:45;78.13;;;39.90;;
48006;SDS011;33771;48.180;11.400;2022-11-30T00:18:11;80.63;;;39.13;;
48006;SDS011;33771;48.180;11.400;2022-11-30T00:20:36;72.97;;;37.27;;
48006;SDS011;33771;48.180;11.400;2022-11-30T00:23:02;74.27;;;37.47;;
48006;SDS011;33771;48.180;11.400;2022-11-30T00:25:27;73.40;;;36.67;;
48006;SDS011;33771;48.180;11.400;2022-11-30T00:27:53;68.23;;;36.17;;
48006;SDS011;33771;48.180;11.400;2022-11-30T00:30:18;56.23;;;30.97;;
48006;SDS011;33771;48.180;11.400;2022-11-30T00:32:44;50.60;;;28.07;;
48006;SDS011;33771;48.180;11.400;2022-11-30T00:35:10;49.33;;;25.80;;
48006;SDS011;33771;48.180;11.400;2022-11-30T00:37:35;45.53;;;25.63;;
48006;SDS011;33771;48.180;11.400;2022-11-30T00:40:01;52.33;;;28.13;;
48006;SDS011;33771;48.180;11.400;2022-11-30T00:42:27;54.90;;;26.93;;
48006;SDS011;33771;48.180;11.400;2022-11-30T00:44:52;49.07;;;25.30;;
48006;SDS011;33771;48.180;11.400;2022-11-30T00:47:18;51.20;;;26.93;;
48006;SDS011;33771;48.180;11.400;2022-11-30T00:49:43;49.67;;;26.07;;
48006;SDS011;33771;48.180;11.400;2022-11-30T00:52:09;52.77;;;26.00;;
48006;SDS011;33771;48.180;11.400;2022-11-30T00:54:34;44.37;;;24.83;;
48006;SDS011;33771;48.180;11.400;2022-11-30T00:57:00;54.03;;;25.63;;
48006;SDS011;33771;48.180;11.400;2022-11-30T00:59:25;47.53;;;23.80;;
48006;SDS011;33771;48.180;11.400;2022-11-30T01:01:52;46.13;;;24.67;;
48006;SDS011;33771;48.180;11.400;2022-11-30T01:04:18;47.60;;;24.30;;
48006;SDS011;33771;48.180;11.400;2022-11-30T01:06:44;46.00;;;23.10;;
48006;SDS011;33771;48.180;11.400;2022-11-30T01:09:10;41.13;;;22.07;;
48006;SDS011;33771;48.180;11.400;2022-11-30T01:11:36;45.53;;;23.43;;
48006;SDS011;33771;48.180;11.400;2022-11-30T01:14:01;47.93;;;23.00;;
48006;SDS011;33771;48.180;11.400;2022-11-30T01:16:29;44.27;;;22.37;;
48006;SDS011;33771;48.180;11.400;2022-11-30T01:18:56;40.13;;;20.57;;
48006;SDS011;33771;48.180;11.400;2022-11-30T01:21:22;38.53;;;20.80;;
48006;SDS011;33771;48.180;11.400;2022-11-30T01:23:50;43.40;;;22.60;;
48006;SDS011;33771;48.180;11.400;2022-11-30T01:26:16;41.77;;;21.40;;
48006;SDS011;33771;48.180;11.400;2022-11-30T01:28:42;42.10;;;22.10;;
48006;SDS011;33771;48.180;11.400;2022-11-30T01:31:10;40.50;;;21.73;;
48006;SDS011;33771;48.180;11.400;2022-11-30T01:33:37;41.17;;;21.20;;
48006;SDS011;33771;48.180;11.400;2022-11-30T01:36:04;37.23;;;20.33;;
48006;SDS011;33771;48.180;11.400;2022-11-30T01:38:38;40.80;;;20.97;;
48006;SDS011;33771;48.180;11.400;2022-11-30T01:41:05;45.07;;;22.47;;
48006;SDS011;33771;48.180;11.400;2022-11-30T01:43:51;43.87;;;23.73;;
48006;SDS011;33771;48.180;11.400;2022-11-30T01:46:19;41.83;;;21.33;;
48006;SDS011;33771;48.180;11.400;2022-11-30T01:54:15;46.33;;;24.67;;
48006;SDS011;33771;48.180;11.400;2022-11-30T01:56:49;48.60;;;24.67;;
48006;SDS011;33771;48.180;11.400;2022-11-30T01:59:19;49.08;;;26.17;;
48006;SDS011;33771;48.180;11.400;2022-11-30T02:01:47;47.90;;;24.53;;
48006;SDS011;33771;48.180;11.400;2022-11-30T02:04:15;45.93;;;24.53;;
48006;SDS011;33771;48.180;11.400;2022-11-30T02:06:50;47.93;;;26.23;;
48006;SDS011;33771;48.180;11.400;2022-11-30T02:09:17;49.47;;;26.03;;
48006;SDS011;33771;48.180;11.400;2022-11-30T02:11:44;45.97;;;25.63;;
48006;SDS011;33771;48.180;11.400;2022-11-30T02:31:09;47.90;;;26.57;;
48006;SDS011;33771;48.180;11.400;2022-11-30T02:33:38;51.77;;;26.93;;
48006;SDS011;33771;48.180;11.400;2022-11-30T02:36:05;49.23;;;26.43;;
48006;SDS011;33771;48.180;11.400;2022-11-30T02:38:33;52.33;;;27.37;;
48006;SDS011;33771;48.180;11.400;2022-11-30T02:40:59;54.90;;;28.87;;
48006;SDS011;33771;48.180;11.400;2022-11-30T02:43:26;52.43;;;28.43;;
48006;SDS011;33771;48.180;11.400;2022-11-30T02:48:31;55.23;;;28.13;;
48006;SDS011;33771;48.180;11.400;2022-11-30T02:51:17;52.87;;;27.20;;
48006;SDS011;33771;48.180;11.400;2022-11-30T02:53:46;53.43;;;28.00;;
48006;SDS011;33771;48.180;11.400;2022-11-30T02:56:12;53.00;;;29.57;;
48006;SDS011;33771;48.180;11.400;2022-11-30T02:58:38;53.43;;;27.77;;
48006;SDS011;33771;48.180;11.400;2022-11-30T03:01:04;50.27;;;28.00;;
48006;SDS011;33771;48.180;11.400;2022-11-30T03:03:30;57.80;;;29.73;;
48006;SDS011;33771;48.180;11.400;2022-11-30T03:05:55;54.87;;;28.50;;
48006;SDS011;33771;48.180;11.400;2022-11-30T03:08:21;54.90;;;29.60;;
48006;SDS011;33771;48.180;11.400;2022-11-30T03:10:46;56.70;;;29.77;;
48006;SDS011;33771;48.180;11.400;2022-11-30T03:13:12;55.77;;;29.83;;
48006;SDS011;33771;48.180;11.400;2022-11-30T03:15:38;54.37;;;29.57;;
48006;SDS011;33771;48.180;11.400;2022-11-30T03:18:04;52.93;;;29.00;;
48006;SDS011;33771;48.180;11.400;2022-11-30T03:20:30;60.27;;;30.63;;
48006;SDS011;33771;48.180;11.400;2022-11-30T03:22:59;55.90;;;28.43;;
48006;SDS011;33771;48.180;11.400;2022-11-30T03:25:25;57.23;;;30.17;;
48006;SDS011;33771;48.180;11.400;2022-11-30T03:27:51;56.50;;;29.00;;
48006;SDS011;33771;48.180;11.400;2022-11-30T03:30:16;55.60;;;28.03;;
48006;SDS011;33771;48.180;11.400;2022-11-30T03:32:42;55.00;;;29.63;;
48006;SDS011;33771;48.180;11.400;2022-11-30T03:35:08;56.70;;;30.37;;
48006;SDS011;33771;48.180;11.400;2022-11-30T03:37:33;56.33;;;29.60;;
48006;SDS011;33771;48.180;11.400;2022-11-30T03:39:59;60.03;;;31.57;;
48006;SDS011;33771;48.180;11.400;2022-11-30T03:42:24;59.43;;;30.97;;
48006;SDS011;33771;48.180;11.400;2022-11-30T03:44:50;60.70;;;30.50;;
48006;SDS011;33771;48.180;11.400;2022-11-30T03:47:16;58.60;;;31.27;;
48006;SDS011;33771;48.180;11.400;2022-11-30T03:49:41;57.80;;;29.90;;
48006;SDS011;33771;48.180;11.400;2022-11-30T03:52:07;67.07;;;32.60;;
48006;SDS011;33771;48.180;11.400;2022-11-30T03:54:32;61.73;;;32.10;;
48006;SDS011;33771;48.180;11.400;2022-11-30T03:56:58;68.47;;;33.87;;
48006;SDS011;33771;48.180;11.400;2022-11-30T03:59:23;66.43;;;33.57;;
48006;SDS011;33771;48.180;11.400;2022-11-30T04:01:49;69.50;;;34.17;;
48006;SDS011;33771;48.180;11.400;2022-11-30T04:04:14;73.50;;;34.43;;
48006;SDS011;33771;48.180;11.400;2022-11-30T04:06:40;66.63;;;34.47;;
48006;SDS011;33771;48.180;11.400;2022-11-30T04:09:05;65.40;;;33.23;;
48006;SDS011;33771;48.180;11.400;2022-11-30T04:11:31;58.03;;;30.70;;
48006;SDS011;33771;48.180;11.400;2022-11-30T04:13:57;58.27;;;29.77;;
48006;SDS011;33771;48.180;11.400;2022-11-30T04:16:22;64.53;;;31.83;;
48006;SDS011;33771;48.180;11.400;2022-11-30T04:18:48;55.87;;;28.90;;
48006;SDS011;33771;48.180;11.400;2022-11-30T04:21:13;49.80;;;27.67;;
48006;SDS011;33771;48.180;11.400;2022-11-30T04:23:39;49.10;;;25.60;;
48006;SDS011;33771;48.180;11.400;2022-11-30T04:26:06;50.93;;;26.33;;
48006;SDS011;33771;48.180;11.400;2022-11-30T04:28:34;49.27;;;26.77;;
48006;SDS011;33771;48.180;11.400;2022-11-30T04:31:00;49.00;;;24.80;;
48006;SDS011;33771;48.180;11.400;2022-11-30T04:33:26;47.17;;;25.80;;
48006;SDS011;33771;48.180;11.400;2022-11-30T04:35:53;49.43;;;25.10;;
48006;SDS011;33771;48.180;11.400;2022-11-30T04:38:20;53.50;;;29.03;;
48006;SDS011;33771;48.180;11.400;2022-11-30T04:40:47;52.43;;;26.87;;
48006;SDS011;33771;48.180;11.400;2022-11-30T04:43:13;50.47;;;25.97;;
48006;SDS011;33771;48.180;11.400;2022-11-30T04:45:39;53.00;;;26.40;;
48006;SDS011;33771;48.180;11.400;2022-11-30T04:48:05;49.40;;;25.33;;
48006;SDS011;33771;48.180;11.400;2022-11-30T04:50:31;47.67;;;24.90;;
48006;SDS011;33771;48.180;11.400;2022-11-30T04:52:56;51.57;;;25.90;;
48006;SDS011;33771;48.180;11.400;2022-11-30T04:55:22;53.23;;;25.90;;
48006;SDS011;33771;48.180;11.400;2022-11-30T04:57:49;46.70;;;25.50;;
48006;SDS011;33771;48.180;11.400;2022-11-30T05:00:15;46.67;;;24.90;;
48006;SDS011;33771;48.180;11.400;2022-11-30T05:02:42;48.63;;;26.53;;
48006;SDS011;33771;48.180;11.400;2022-11-30T05:05:08;46.27;;;25.67;;
48006;SDS011;33771;48.180;11.400;2022-11-30T05:07:34;48.20;;;25.67;;
48006;SDS011;33771;48.180;11.400;2022-11-30T05:10:01;44.63;;;24.83;;
48006;SDS011;33771;48.180;11.400;2022-11-30T05:12:26;47.40;;;25.17;;
48006;SDS011;33771;48.180;11.400;2022-11-30T05:14:52;46.47;;;24.50;;
48006;SDS011;33771;48.180;11.400;2022-11-30T05:17:17;46.17;;;25.37;;
48006;SDS011;33771;48.180;11.400;2022-11-30T05:19:43;44.20;;;25.27;;
48006;SDS011;33771;48.180;11.400;2022-11-30T05:22:08;52.80;;;27.63;;
48006;SDS011;33771;48.180;11.400;2022-11-30T05:24:34;41.90;;;22.97;;
48006;SDS011;33771;48.180;11.400;2022-11-30T05:27:00;43.47;;;25.67;;
48006;SDS011;33771;48.180;11.400;2022-11-30T05:29:25;40.03;;;20.93;;
48006;SDS011;33771;48.180;11.400;2022-11-30T05:31:51;38.33;;;21.57;;
48006;SDS011;33771;48.180;11.400;2022-11-30T05:34:16;45.83;;;22.13;;
48006;SDS011;33771;48.180;11.400;2022-11-30T05:36:42;105.20;;;58.43;;
48006;SDS011;33771;48.180;11.400;2022-11-30T05:39:08;40.93;;;23.87;;
48006;SDS011;33771;48.180;11.400;2022-11-30T05:41:33;40.40;;;22.20;;
48006;SDS011;33771;48.180;11.400;2022-11-30T05:43:59;36.07;;;20.20;;
48006;SDS011;33771;48.180;11.400;2022-11-30T05:46:25;35.63;;;19.40;;
48006;SDS011;33771;48.180;11.400;2022-11-30T05:48:50;33.77;;;20.20;;
48006;SDS011;33771;48.180;11.400;2022-11-30T05:51:17;37.60;;;21.20;;
48006;SDS011;33771;48.180;11.400;2022-11-30T05:53:44;43.40;;;24.90;;
48006;SDS011;33771;48.180;11.400;2022-11-30T05:56:11;80.23;;;43.30;;
48006;SDS011;33771;48.180;11.400;2022-11-30T05:58:42;40.07;;;24.70;;
48006;SDS011;33771;48.180;11.400;2022-11-30T06:01:15;62.83;;;37.57;;
48006;SDS011;33771;48.180;11.400;2022-11-30T06:03:46;37.10;;;21.03;;
48006;SDS011;33771;48.180;11.400;2022-11-30T06:06:11;85.37;;;48.03;;
48006;SDS011;33771;48.180;11.400;2022-11-30T06:08:37;39.33;;;23.57;;
48006;SDS011;33771;48.180;11.400;2022-11-30T06:11:03;37.23;;;25.70;;
48006;SDS011;33771;48.180;11.400;2022-11-30T06:13:28;34.40;;;20.73;;
48006;SDS011;33771;48.180;11.400;2022-11-30T06:16:03;33.37;;;20.00;;
48006;SDS011;33771;48.180;11.400;2022-11-30T06:18:37;44.97;;;28.00;;
48006;SDS011;33771;48.180;11.400;2022-11-30T06:21:04;38.77;;;20.77;;
48006;SDS011;33771;48.180;11.400;2022-11-30T06:23:32;36.43;;;22.83;;
48006;SDS011;33771;48.180;11.400;2022-11-30T06:26:01;38.40;;;22.20;;
48006;SDS011;33771;48.180;11.400;2022-11-30T06:28:31;35.87;;;20.67;;
48006;SDS011;33771;48.180;11.400;2022-11-30T06:30:57;33.53;;;19.93;;
48006;SDS011;33771;48.180;11.400;2022-11-30T06:33:26;37.27;;;19.77;;
48006;SDS011;33771;48.180;11.400;2022-11-30T06:35:52;38.03;;;23.20;;
48006;SDS011;33771;48.180;11.400;2022-11-30T06:38:18;34.87;;;19.87;;
48006;SDS011;33771;48.180;11.400;2022-11-30T06:40:44;35.87;;;20.13;;
48006;SDS011;33771;48.180;11.400;2022-11-30T06:43:10;33.73;;;19.93;;
48006;SDS011;33771;48.180;11.400;2022-11-30T06:45:36;35.47;;;20.10;;
48006;SDS011;33771;48.180;11.400;2022-11-30T06:48:02;36.63;;;20.40;;
48006;SDS011;33771;48.180;11.400;2022-11-30T06:50:27;38.87;;;21.07;;
48006;SDS011;33771;48.180;11.400;2022-11-30T06:52:54;33.67;;;20.17;;
48006;SDS011;33771;48.180;11.400;2022-11-30T06:55:20;34.13;;;19.33;;
48006;SDS011;33771;48.180;11.400;2022-11-30T06:57:47;38.87;;;20.30;;
48006;SDS011;33771;48.180;11.400;2022-11-30T07:00:13;34.83;;;20.10;;
48006;SDS011;33771;48.180;11.400;2022-11-30T07:02:39;41.17;;;23.07;;
48006;SDS011;33771;48.180;11.400;2022-11-30T07:05:04;33.50;;;20.37;;
48006;SDS011;33771;48.180;11.400;2022-11-30T07:07:30;40.07;;;20.13;;
48006;SDS011;33771;48.180;11.400;2022-11-30T07:09:56;32.80;;;19.53;;
48006;SDS011;33771;48.180;11.400;2022-11-30T07:12:22;40.77;;;20.53;;
48006;SDS011;33771;48.180;11.400;2022-11-30T07:14:48;36.03;;;20.53;;
48006;SDS011;33771;48.180;11.400;2022-11-30T07:17:16;35.80;;;20.33;;
48006;SDS011;33771;48.180;11.400;2022-11-30T07:19:42;33.27;;;19.27;;
48006;SDS011;33771;48.180;11.400;2022-11-30T07:22:08;33.07;;;18.40;;
48006;SDS011;33771;48.180;11.400;2022-11-30T07:24:34;34.37;;;19.20;;
48006;SDS011;33771;48.180;11.400;2022-11-30T07:27:18;33.23;;;19.33;;
48006;SDS011;33771;48.180;11.400;2022-11-30T07:29:43;34.70;;;18.30;;
48006;SDS011;33771;48.180;11.400;2022-11-30T07:32:09;34.77;;;19.50;;
48006;SDS011;33771;48.180;11.400;2022-11-30T07:34:35;31.77;;;18.63;;
48006;SDS011;33771;48.180;11.400;2022-11-30T07:37:00;32.33;;;17.87;;
48006;SDS011;33771;48.180;11.400;2022-11-30T07:39:26;32.87;;;17.83;;
48006;SDS011;33771;48.180;11.400;2022-11-30T07:41:51;34.47;;;18.73;;
48006;SDS011;33771;48.180;11.400;2022-11-30T07:44:17;34.80;;;18.00;;
48006;SDS011;33771;48.180;11.400;2022-11-30T07:46:42;31.67;;;17.63;;
48006;SDS011;33771;48.180;11.400;2022-11-30T07:49:08;33.47;;;17.80;;
48006;SDS011;33771;48.180;11.400;2022-11-30T07:51:34;44.17;;;21.13;;
48006;SDS011;33771;48.180;11.400;2022-11-30T07:54:00;33.27;;;18.13;;
48006;SDS011;33771;48.180;11.400;2022-11-30T07:56:26;38.33;;;21.77;;
48006;SDS011;33771;48.180;11.400;2022-11-30T07:58:54;34.83;;;19.33;;
48006;SDS011;33771;48.180;11.400;2022-11-30T08:01:24;32.83;;;19.17;;
48006;SDS011;33771;48.180;11.400;2022-11-30T08:03:51;37.10;;;21.47;;
48006;SDS011;33771;48.180;11.400;2022-11-30T08:06:18;39.13;;;19.30;;
48006;SDS011;33771;48.180;11.400;2022-11-30T08:08:45;36.10;;;19.50;;
48006;SDS011;33771;48.180;11.400;2022-11-30T08:11:13;34.50;;;17.80;;
48006;SDS011;33771;48.180;11.400;2022-11-30T08:13:41;33.10;;;19.60;;
48006;SDS011;33771;48.180;11.400;2022-11-30T08:16:08;36.23;;;19.40;;
48006;SDS011;33771;48.180;11.400;2022-11-30T08:18:38;38.37;;;20.53;;
48006;SDS011;33771;48.180;11.400;2022-11-30T08:21:05;35.50;;;20.97;;
48006;SDS011;33771;48.180;11.400;2022-11-30T08:23:33;36.00;;;20.57;;
48006;SDS011;33771;48.180;11.400;2022-11-30T08:26:07;35.13;;;20.17;;
48006;SDS011;33771;48.180;11.400;2022-11-30T08:28:36;37.90;;;20.30;;
48006;SDS011;33771;48.180;11.400;2022-11-30T08:31:02;39.30;;;21.93;;
48006;SDS011;33771;48.180;11.400;2022-11-30T08:33:30;41.30;;;21.20;;
48006;SDS011;33771;48.180;11.400;2022-11-30T08:36:06;37.83;;;21.47;;
48006;SDS011;33771;48.180;11.400;2022-11-30T08:38:35;40.10;;;20.13;;
48006;SDS011;33771;48.180;11.400;2022-11-30T08:41:02;40.43;;;20.17;;
48006;SDS011;33771;48.180;11.400;2022-11-30T08:43:29;43.23;;;21.60;;
48006;SDS011;33771;48.180;11.400;2022-11-30T08:45:55;42.27;;;22.23;;
48006;SDS011;33771;48.180;11.400;2022-11-30T08:48:20;37.80;;;21.30;;
48006;SDS011;33771;48.180;11.400;2022-11-30T08:50:46;40.03;;;20.80;;
48006;SDS011;33771;48.180;11.400;2022-11-30T08:53:12;36.20;;;21.40;;
48006;SDS011;33771;48.180;11.400;2022-11-30T08:55:37;36.90;;;21.30;;
48006;SDS011;33771;48.180;11.400;2022-11-30T08:58:03;37.70;;;21.93;;
48006;SDS011;33771;48.180;11.400;2022-11-30T09:00:28;38.20;;;22.00;;
48006;SDS011;33771;48.180;11.400;2022-11-30T09:02:54;34.23;;;20.70;;
48006;SDS011;33771;48.180;11.400;2022-11-30T09:05:20;35.23;;;19.70;;
48006;SDS011;33771;48.180;11.400;2022-11-30T09:07:46;32.80;;;18.80;;
48006;SDS011;33771;48.180;11.400;2022-11-30T09:10:12;37.40;;;19.60;;
48006;SDS011;33771;48.180;11.400;2022-11-30T09:12:38;35.20;;;21.00;;
48006;SDS011;33771;48.180;11.400;2022-11-30T09:15:05;38.73;;;20.73;;
48006;SDS011;33771;48.180;11.400;2022-11-30T09:17:32;36.27;;;20.30;;
48006;SDS011;33771;48.180;11.400;2022-11-30T09:19:58;47.83;;;23.53;;
48006;SDS011;33771;48.180;11.400;2022-11-30T09:22:24;39.63;;;22.17;;
48006;SDS011;33771;48.180;11.400;2022-11-30T09:24:51;38.47;;;22.00;;
48006;SDS011;33771;48.180;11.400;2022-11-30T09:27:17;39.57;;;22.47;;
48006;SDS011;33771;48.180;11.400;2022-11-30T09:29:43;39.20;;;23.33;;
48006;SDS011;33771;48.180;11.400;2022-11-30T09:32:09;42.13;;;24.07;;
48006;SDS011;33771;48.180;11.400;2022-11-30T09:34:34;41.27;;;24.67;;
48006;SDS011;33771;48.180;11.400;2022-11-30T09:37:00;41.80;;;23.43;;
48006;SDS011;33771;48.180;11.400;2022-11-30T09:39:25;39.27;;;22.70;;
48006;SDS011;33771;48.180;11.400;2022-11-30T09:42:37;38.73;;;22.40;;
48006;SDS011;33771;48.180;11.400;2022-11-30T09:47:31;35.97;;;20.37;;
48006;SDS011;33771;48.180;11.400;2022-11-30T09:50:01;36.27;;;20.97;;
48006;SDS011;33771;48.180;11.400;2022-11-30T09:52:39;34.37;;;20.03;;
48006;SDS011;33771;48.180;11.400;2022-11-30T09:55:11;34.77;;;19.73;;
48006;SDS011;33771;48.180;11.400;2022-11-30T10:00:21;33.93;;;18.83;;
48006;SDS011;33771;48.180;11.400;2022-11-30T10:02:48;34.13;;;19.50;;
48006;SDS011;33771;48.180;11.400;2022-11-30T10:05:16;33.30;;;18.20;;
48006;SDS011;33771;48.180;11.400;2022-11-30T10:16:26;29.67;;;17.27;;
48006;SDS011;33771;48.180;11.400;2022-11-30T10:27:48;28.33;;;14.63;;
48006;SDS011;33771;48.180;11.400;2022-11-30T10:30:22;26.03;;;15.50;;
48006;SDS011;33771;48.180;11.400;2022-11-30T10:32:53;25.50;;;15.37;;
48006;SDS011;33771;48.180;11.400;2022-11-30T10:35:22;24.80;;;14.20;;
48006;SDS011;33771;48.180;11.400;2022-11-30T10:38:04;20.67;;;12.37;;
48006;SDS011;33771;48.180;11.400;2022-11-30T10:40:47;20.50;;;12.70;;
48006;SDS011;33771;48.180;11.400;2022-11-30T10:46:23;20.17;;;12.53;;
48006;SDS011;33771;48.180;11.400;2022-11-30T10:49:04;18.58;;;12.07;;
48006;SDS011;33771;48.180;11.400;2022-11-30T10:51:35;19.63;;;12.73;;
48006;SDS011;33771;48.180;11.400;2022-11-30T10:54:03;18.67;;;12.50;;
48006;SDS011;33771;48.180;11.400;2022-11-30T10:56:43;18.60;;;11.97;;
48006;SDS011;33771;48.180;11.400;2022-11-30T10:59:10;20.40;;;12.07;;
48006;SDS011;33771;48.180;11.400;2022-11-30T11:01:43;19.33;;;11.50;;
48006;SDS011;33771;48.180;11.400;2022-11-30T11:09:23;19.50;;;12.13;;
48006;SDS011;33771;48.180;11.400;2022-11-30T11:12:13;20.00;;;12.40;;
48006;SDS011;33771;48.180;11.400;2022-11-30T11:14:44;21.67;;;13.13;;
48006;SDS011;33771;48.180;11.400;2022-11-30T11:19:42;20.97;;;13.27;;
48006;SDS011;33771;48.180;11.400;2022-11-30T11:22:21;20.57;;;13.33;;
48006;SDS011;33771;48.180;11.400;2022-11-30T11:24:49;20.00;;;13.23;;
48006;SDS011;33771;48.180;11.400;2022-11-30T11:32:30;21.43;;;12.73;;
48006;SDS011;33771;48.180;11.400;2022-11-30T11:34:56;18.17;;;12.50;;
48006;SDS011;33771;48.180;11.400;2022-11-30T11:37:23;18.97;;;11.93;;
48006;SDS011;33771;48.180;11.400;2022-11-30T11:42:40;17.20;;;11.23;;
48006;SDS011;33771;48.180;11.400;2022-11-30T11:45:14;16.33;;;9.97;;
48006;SDS011;33771;48.180;11.400;2022-11-30T11:47:45;17.73;;;10.83;;
48006;SDS011;33771;48.180;11.400;2022-11-30T11:55:42;16.33;;;10.20;;
48006;SDS011;33771;48.180;11.400;2022-11-30T11:58:21;14.83;;;10.03;;
48006;SDS011;33771;48.180;11.400;2022-11-30T12:00:59;16.80;;;10.57;;
48006;SDS011;33771;48.180;11.400;2022-11-30T12:03:53;16.10;;;9.90;;
48006;SDS011;33771;48.180;11.400;2022-11-30T12:06:34;15.13;;;9.50;;
48006;SDS011;33771;48.180;11.400;2022-11-30T12:09:03;20.63;;;13.20;;
48006;SDS011;33771;48.180;11.400;2022-11-30T12:11:44;22.83;;;14.77;;
48006;SDS011;33771;48.180;11.400;2022-11-30T12:14:12;25.73;;;15.87;;
48006;SDS011;33771;48.180;11.400;2022-11-30T12:22:35;41.13;;;24.07;;
48006;SDS011;33771;48.180;11.400;2022-11-30T12:25:20;30.10;;;18.20;;
48006;SDS011;33771;48.180;11.400;2022-11-30T12:28:24;35.27;;;21.00;;
48006;SDS011;33771;48.180;11.400;2022-11-30T12:35:50;29.97;;;18.43;;
48006;SDS011;33771;48.180;11.400;2022-11-30T12:38:35;29.50;;;18.33;;
48006;SDS011;33771;48.180;11.400;2022-11-30T12:46:33;32.63;;;18.37;;
48006;SDS011;33771;48.180;11.400;2022-11-30T12:51:59;26.93;;;17.00;;
48006;SDS011;33771;48.180;11.400;2022-11-30T12:57:53;21.37;;;14.00;;
48006;SDS011;33771;48.180;11.400;2022-11-30T13:00:33;24.83;;;13.50;;
48006;SDS011;33771;48.180;11.400;2022-11-30T13:05:50;21.40;;;13.97;;
48006;SDS011;33771;48.180;11.400;2022-11-30T13:11:20;22.77;;;14.37;;
48006;SDS011;33771;48.180;11.400;2022-11-30T13:13:54;26.27;;;16.30;;
48006;SDS011;33771;48.180;11.400;2022-11-30T13:16:22;19.97;;;13.57;;
48006;SDS011;33771;48.180;11.400;2022-11-30T13:18:49;22.43;;;13.50;;
48006;SDS011;33771;48.180;11.400;2022-11-30T13:21:30;22.80;;;13.63;;
48006;SDS011;33771;48.180;11.400;2022-11-30T13:26:51;21.40;;;13.17;;
48006;SDS011;33771;48.180;11.400;2022-11-30T13:29:44;21.93;;;12.37;;
48006;SDS011;33771;48.180;11.400;2022-11-30T13:32:33;20.40;;;12.17;;
48006;SDS011;33771;48.180;11.400;2022-11-30T13:38:03;19.97;;;12.13;;
48006;SDS011;33771;48.180;11.400;2022-11-30T13:40:30;16.80;;;10.97;;
48006;SDS011;33771;48.180;11.400;2022-11-30T13:42:56;18.50;;;11.70;;
48006;SDS011;33771;48.180;11.400;2022-11-30T13:45:26;19.23;;;11.70;;
48006;SDS011;33771;48.180;11.400;2022-11-30T13:47:56;17.00;;;10.93;;
48006;SDS011;33771;48.180;11.400;2022-11-30T13:58:07;20.10;;;12.70;;
48006;SDS011;33771;48.180;11.400;2022-11-30T14:05:49;18.17;;;11.70;;
48006;SDS011;33771;48.180;11.400;2022-11-30T14:10:54;18.07;;;12.00;;
48006;SDS011;33771;48.180;11.400;2022-11-30T14:14:16;19.23;;;12.07;;
48006;SDS011;33771;48.180;11.400;2022-11-30T14:17:01;19.00;;;11.57;;
48006;SDS011;33771;48.180;11.400;2022-11-30T14:19:28;19.50;;;12.60;;
48006;SDS011;33771;48.180;11.400;2022-11-30T14:21:54;19.33;;;12.27;;
48006;SDS011;33771;48.180;11.400;2022-11-30T14:24:22;18.17;;;11.33;;
48006;SDS011;33771;48.180;11.400;2022-11-30T14:26:49;20.07;;;12.20;;
48006;SDS011;33771;48.180;11.400;2022-11-30T14:29:19;18.67;;;11.93;;
48006;SDS011;33771;48.180;11.400;2022-11-30T14:31:57;21.67;;;12.90;;
48006;SDS011;33771;48.180;11.400;2022-11-30T14:34:35;21.20;;;12.53;;
48006;SDS011;33771;48.180;11.400;2022-11-30T14:40:02;21.77;;;12.80;;
48006;SDS011;33771;48.180;11.400;2022-11-30T14:42:30;20.60;;;12.87;;
48006;SDS011;33771;48.180;11.400;2022-11-30T14:44:57;21.03;;;13.03;;
48006;SDS011;33771;48.180;11.400;2022-11-30T14:47:27;21.50;;;13.40;;
48006;SDS011;33771;48.180;11.400;2022-11-30T14:50:01;20.50;;;13.37;;
48006;SDS011;33771;48.180;11.400;2022-11-30T14:55:32;21.37;;;12.83;;
48006;SDS011;33771;48.180;11.400;2022-11-30T15:01:05;25.73;;;15.33;;
48006;SDS011;33771;48.180;11.400;2022-11-30T15:03:41;28.90;;;16.20;;
48006;SDS011;33771;48.180;11.400;2022-11-30T15:06:07;29.60;;;17.40;;
48006;SDS011;33771;48.180;11.400;2022-11-30T15:11:11;29.23;;;18.63;;
48006;SDS011;33771;48.180;11.400;2022-11-30T15:13:45;30.83;;;18.87;;
48006;SDS011;33771;48.180;11.400;2022-11-30T15:16:16;33.40;;;19.63;;
48006;SDS011;33771;48.180;11.400;2022-11-30T15:18:48;30.15;;;18.50;;
48006;SDS011;33771;48.180;11.400;2022-11-30T15:21:15;31.53;;;18.77;;
48006;SDS011;33771;48.180;11.400;2022-11-30T15:23:56;35.20;;;18.65;;
48006;SDS011;33771;48.180;11.400;2022-11-30T15:29:35;30.27;;;18.83;;
48006;SDS011;33771;48.180;11.400;2022-11-30T15:32:04;35.17;;;20.07;;
48006;SDS011;33771;48.180;11.400;2022-11-30T15:34:43;33.43;;;20.03;;
48006;SDS011;33771;48.180;11.400;2022-11-30T15:37:12;34.77;;;20.60;;
48006;SDS011;33771;48.180;11.400;2022-11-30T15:39:38;35.03;;;20.63;;
48006;SDS011;33771;48.180;11.400;2022-11-30T15:42:14;34.37;;;20.83;;
48006;SDS011;33771;48.180;11.400;2022-11-30T15:44:43;39.95;;;22.30;;
48006;SDS011;33771;48.180;11.400;2022-11-30T15:49:58;33.90;;;19.93;;
48006;SDS011;33771;48.180;11.400;2022-11-30T15:52:25;39.10;;;21.47;;
48006;SDS011;33771;48.180;11.400;2022-11-30T15:54:55;34.17;;;20.87;;
48006;SDS011;33771;48.180;11.400;2022-11-30T16:00:26;33.23;;;21.07;;
48006;SDS011;33771;48.180;11.400;2022-11-30T16:03:08;37.63;;;21.97;;
48006;SDS011;33771;48.180;11.400;2022-11-30T16:05:40;35.43;;;20.87;;
48006;SDS011;33771;48.180;11.400;2022-11-30T16:08:21;33.10;;;19.90;;
48006;SDS011;33771;48.180;11.400;2022-11-30T16:10:46;35.57;;;21.87;;
48006;SDS011;33771;48.180;11.400;2022-11-30T16:13:16;38.30;;;21.50;;
48006;SDS011;33771;48.180;11.400;2022-11-30T16:15:44;37.43;;;22.50;;
48006;SDS011;33771;48.180;11.400;2022-11-30T16:20:40;38.47;;;22.00;;
48006;SDS011;33771;48.180;11.400;2022-11-30T16:23:09;38.03;;;21.67;;
48006;SDS011;33771;48.180;11.400;2022-11-30T16:25:39;38.27;;;23.17;;
48006;SDS011;33771;48.180;11.400;2022-11-30T16:28:09;37.53;;;21.90;;
48006;SDS011;33771;48.180;11.400;2022-11-30T16:30:36;39.27;;;21.90;;
48006;SDS011;33771;48.180;11.400;2022-11-30T16:33:02;39.70;;;22.53;;
48006;SDS011;33771;48.180;11.400;2022-11-30T16:35:35;40.53;;;21.20;;
48006;SDS011;33771;48.180;11.400;2022-11-30T16:38:15;71.57;;;35.40;;
48006;SDS011;33771;48.180;11.400;2022-11-30T16:40:42;66.47;;;35.93;;
48006;SDS011;33771;48.180;11.400;2022-11-30T16:43:09;42.97;;;26.17;;